sensor_id;sensor_type;location;lat;lon;timestamp;temperature;humidity
54540;SHT30;40438;52.992;18.604;2023-04-25T00:01:10;12.95;80.73
54540;SHT30;40438;52.992;18.604;2023-04-25T00:03:36;12.87;81.03
54540;SHT30;40438;52.992;18.604;2023-04-25T00:06:02;12.87;81.15
54540;SHT30;40438;52.992;18.604;2023-04-25T00:08:28;12.84;81.32
54540;SHT30;40438;52.992;18.604;2023-04-25T00:10:54;12.71;81.71
54540;SHT30;40438;52.992;18.604;2023-04-25T00:13:20;12.71;81.69
54540;SHT30;40438;52.992;18.604;2023-04-25T00:15:47;12.75;81.54
54540;SHT30;40438;52.992;18.604;2023-04-25T00:18:13;12.73;81.57
54540;SHT30;40438;52.992;18.604;2023-04-25T00:20:39;12.64;81.88
54540;SHT30;40438;52.992;18.604;2023-04-25T00:23:05;12.68;81.80
54540;SHT30;40438;52.992;18.604;2023-04-25T00:25:30;12.63;81.77
54540;SHT30;40438;52.992;18.604;2023-04-25T00:27:56;12.64;81.81
54540;SHT30;40438;52.992;18.604;2023-04-25T00:30:22;12.65;81.77
54540;SHT30;40438;52.992;18.604;2023-04-25T00:32:49;12.59;82.17
54540;SHT30;40438;52.992;18.604;2023-04-25T00:35:15;12.67;81.96
54540;SHT30;40438;52.992;18.604;2023-04-25T00:37:41;12.64;81.99
54540;SHT30;40438;52.992;18.604;2023-04-25T00:40:07;12.60;82.23
54540;SHT30;40438;52.992;18.604;2023-04-25T00:42:34;12.57;82.36
54540;SHT30;40438;52.992;18.604;2023-04-25T00:45:00;12.57;82.84
54540;SHT30;40438;52.992;18.604;2023-04-25T00:47:28;12.57;82.72
54540;SHT30;40438;52.992;18.604;2023-04-25T00:49:55;12.52;83.03
54540;SHT30;40438;52.992;18.604;2023-04-25T00:52:21;12.54;83.05
54540;SHT30;40438;52.992;18.604;2023-04-25T00:54:47;12.52;83.25
54540;SHT30;40438;52.992;18.604;2023-04-25T00:57:13;12.50;83.28
54540;SHT30;40438;52.992;18.604;2023-04-25T00:59:45;12.54;83.43
54540;SHT30;40438;52.992;18.604;2023-04-25T01:02:11;12.52;83.50
54540;SHT30;40438;52.992;18.604;2023-04-25T01:04:37;12.50;83.43
54540;SHT30;40438;52.992;18.604;2023-04-25T01:07:04;12.52;82.63
54540;SHT30;40438;52.992;18.604;2023-04-25T01:09:30;12.49;82.70
54540;SHT30;40438;52.992;18.604;2023-04-25T01:11:56;12.42;82.17
54540;SHT30;40438;52.992;18.604;2023-04-25T01:14:22;12.43;82.04
54540;SHT30;40438;52.992;18.604;2023-04-25T01:16:48;12.46;80.99
54540;SHT30;40438;52.992;18.604;2023-04-25T01:19:16;12.37;80.91
54540;SHT30;40438;52.992;18.604;2023-04-25T01:21:44;12.37;80.92
54540;SHT30;40438;52.992;18.604;2023-04-25T01:24:10;12.36;80.18
54540;SHT30;40438;52.992;18.604;2023-04-25T01:26:36;12.34;80.84
54540;SHT30;40438;52.992;18.604;2023-04-25T01:29:04;12.30;79.97
54540;SHT30;40438;52.992;18.604;2023-04-25T01:31:30;12.30;79.23
54540;SHT30;40438;52.992;18.604;2023-04-25T01:33:57;12.26;78.32
54540;SHT30;40438;52.992;18.604;2023-04-25T01:36:23;12.25;78.35
54540;SHT30;40438;52.992;18.604;2023-04-25T01:38:50;12.29;78.57
54540;SHT30;40438;52.992;18.604;2023-04-25T01:41:16;12.28;79.03
54540;SHT30;40438;52.992;18.604;2023-04-25T01:43:42;12.28;79.36
54540;SHT30;40438;52.992;18.604;2023-04-25T01:46:08;12.25;79.63
54540;SHT30;40438;52.992;18.604;2023-04-25T01:48:34;12.18;79.89
54540;SHT30;40438;52.992;18.604;2023-04-25T01:51:00;12.19;79.38
54540;SHT30;40438;52.992;18.604;2023-04-25T01:53:27;12.15;79.05
54540;SHT30;40438;52.992;18.604;2023-04-25T01:55:55;12.03;79.80
54540;SHT30;40438;52.992;18.604;2023-04-25T01:58:23;12.02;79.57
54540;SHT30;40438;52.992;18.604;2023-04-25T02:01:09;11.95;79.93
54540;SHT30;40438;52.992;18.604;2023-04-25T02:03:43;11.84;79.79
54540;SHT30;40438;52.992;18.604;2023-04-25T02:06:17;11.81;79.80
54540;SHT30;40438;52.992;18.604;2023-04-25T02:08:45;11.71;79.86
54540;SHT30;40438;52.992;18.604;2023-04-25T02:11:14;11.68;80.15
54540;SHT30;40438;52.992;18.604;2023-04-25T02:13:58;11.67;79.58
54540;SHT30;40438;52.992;18.604;2023-04-25T02:16:36;11.61;79.15
54540;SHT30;40438;52.992;18.604;2023-04-25T02:19:02;11.55;79.46
54540;SHT30;40438;52.992;18.604;2023-04-25T02:21:29;11.54;79.18
54540;SHT30;40438;52.992;18.604;2023-04-25T02:23:55;11.53;79.57
54540;SHT30;40438;52.992;18.604;2023-04-25T02:26:23;11.50;79.58
54540;SHT30;40438;52.992;18.604;2023-04-25T02:28:49;11.44;79.72
54540;SHT30;40438;52.992;18.604;2023-04-25T02:31:15;11.40;79.88
54540;SHT30;40438;52.992;18.604;2023-04-25T02:33:40;11.40;79.59
54540;SHT30;40438;52.992;18.604;2023-04-25T02:36:07;11.40;79.69
54540;SHT30;40438;52.992;18.604;2023-04-25T02:38:33;11.39;79.24
54540;SHT30;40438;52.992;18.604;2023-04-25T02:40:58;11.40;79.23
54540;SHT30;40438;52.992;18.604;2023-04-25T02:43:27;11.37;79.16
54540;SHT30;40438;52.992;18.604;2023-04-25T02:45:52;11.36;79.29
54540;SHT30;40438;52.992;18.604;2023-04-25T02:48:18;11.28;79.25
54540;SHT30;40438;52.992;18.604;2023-04-25T02:50:44;11.23;78.94
54540;SHT30;40438;52.992;18.604;2023-04-25T02:53:10;11.16;79.22
54540;SHT30;40438;52.992;18.604;2023-04-25T02:55:43;11.14;79.30
54540;SHT30;40438;52.992;18.604;2023-04-25T02:58:09;11.12;79.01
54540;SHT30;40438;52.992;18.604;2023-04-25T03:00:44;11.12;78.88
54540;SHT30;40438;52.992;18.604;2023-04-25T03:03:10;11.07;79.04
54540;SHT30;40438;52.992;18.604;2023-04-25T03:05:36;11.06;78.63
54540;SHT30;40438;52.992;18.604;2023-04-25T03:08:02;11.06;78.78
54540;SHT30;40438;52.992;18.604;2023-04-25T03:10:29;11.00;78.88
54540;SHT30;40438;52.992;18.604;2023-04-25T03:12:58;10.97;79.21
54540;SHT30;40438;52.992;18.604;2023-04-25T03:15:24;10.95;79.28
54540;SHT30;40438;52.992;18.604;2023-04-25T03:17:53;10.86;78.73
54540;SHT30;40438;52.992;18.604;2023-04-25T03:20:19;10.82;78.21
54540;SHT30;40438;52.992;18.604;2023-04-25T03:22:45;10.75;78.53
54540;SHT30;40438;52.992;18.604;2023-04-25T03:25:10;10.72;78.64
54540;SHT30;40438;52.992;18.604;2023-04-25T03:27:36;10.71;78.39
54540;SHT30;40438;52.992;18.604;2023-04-25T03:30:02;10.67;78.57
54540;SHT30;40438;52.992;18.604;2023-04-25T03:32:29;10.65;78.31
54540;SHT30;40438;52.992;18.604;2023-04-25T03:34:56;10.67;78.09
54540;SHT30;40438;52.992;18.604;2023-04-25T03:37:24;10.58;77.67
54540;SHT30;40438;52.992;18.604;2023-04-25T03:39:50;10.57;77.25
54540;SHT30;40438;52.992;18.604;2023-04-25T03:42:16;10.42;77.65
54540;SHT30;40438;52.992;18.604;2023-04-25T03:44:44;10.44;77.33
54540;SHT30;40438;52.992;18.604;2023-04-25T03:47:10;10.40;77.20
54540;SHT30;40438;52.992;18.604;2023-04-25T03:49:35;10.40;76.72
54540;SHT30;40438;52.992;18.604;2023-04-25T03:52:04;10.38;76.66
54540;SHT30;40438;52.992;18.604;2023-04-25T03:54:35;10.38;77.07
54540;SHT30;40438;52.992;18.604;2023-04-25T03:57:10;10.37;77.58
54540;SHT30;40438;52.992;18.604;2023-04-25T03:59:38;10.37;77.96
54540;SHT30;40438;52.992;18.604;2023-04-25T04:02:06;10.40;77.34
54540;SHT30;40438;52.992;18.604;2023-04-25T04:04:34;10.34;77.17
54540;SHT30;40438;52.992;18.604;2023-04-25T04:07:00;10.31;76.48
54540;SHT30;40438;52.992;18.604;2023-04-25T04:09:31;10.26;76.47
54540;SHT30;40438;52.992;18.604;2023-04-25T04:11:59;10.23;76.17
54540;SHT30;40438;52.992;18.604;2023-04-25T04:14:25;10.17;76.02
54540;SHT30;40438;52.992;18.604;2023-04-25T04:16:51;10.13;76.14
54540;SHT30;40438;52.992;18.604;2023-04-25T04:19:17;10.16;75.90
54540;SHT30;40438;52.992;18.604;2023-04-25T04:21:50;10.10;76.28
54540;SHT30;40438;52.992;18.604;2023-04-25T04:24:16;10.02;76.13
54540;SHT30;40438;52.992;18.604;2023-04-25T04:26:58;10.09;75.47
54540;SHT30;40438;52.992;18.604;2023-04-25T04:29:53;10.07;75.97
54540;SHT30;40438;52.992;18.604;2023-04-25T04:32:26;10.14;75.28
54540;SHT30;40438;52.992;18.604;2023-04-25T04:34:52;10.13;75.15
54540;SHT30;40438;52.992;18.604;2023-04-25T04:37:20;10.17;75.18
54540;SHT30;40438;52.992;18.604;2023-04-25T04:39:46;10.18;75.20
54540;SHT30;40438;52.992;18.604;2023-04-25T04:42:34;10.20;75.26
54540;SHT30;40438;52.992;18.604;2023-04-25T04:45:13;10.27;74.65
54540;SHT30;40438;52.992;18.604;2023-04-25T04:47:50;10.28;74.47
54540;SHT30;40438;52.992;18.604;2023-04-25T04:50:36;10.27;75.20
54540;SHT30;40438;52.992;18.604;2023-04-25T04:53:18;10.33;74.40
54540;SHT30;40438;52.992;18.604;2023-04-25T04:56:08;10.27;74.92
54540;SHT30;40438;52.992;18.604;2023-04-25T04:58:59;10.28;74.34
54540;SHT30;40438;52.992;18.604;2023-04-25T05:01:43;10.30;74.24
54540;SHT30;40438;52.992;18.604;2023-04-25T05:04:29;10.31;73.50
54540;SHT30;40438;52.992;18.604;2023-04-25T05:06:55;10.26;73.62
54540;SHT30;40438;52.992;18.604;2023-04-25T05:09:40;10.23;73.76
54540;SHT30;40438;52.992;18.604;2023-04-25T05:12:28;10.17;73.48
54540;SHT30;40438;52.992;18.604;2023-04-25T05:15:16;10.17;73.71
54540;SHT30;40438;52.992;18.604;2023-04-25T05:18:11;10.13;73.89
54540;SHT30;40438;52.992;18.604;2023-04-25T05:21:12;10.20;73.50
54540;SHT30;40438;52.992;18.604;2023-04-25T05:23:49;10.13;73.68
54540;SHT30;40438;52.992;18.604;2023-04-25T05:26:33;10.12;73.45
54540;SHT30;40438;52.992;18.604;2023-04-25T05:29:20;10.12;73.24
54540;SHT30;40438;52.992;18.604;2023-04-25T05:32:05;10.14;72.38
54540;SHT30;40438;52.992;18.604;2023-04-25T05:34:31;10.12;72.67
54540;SHT30;40438;52.992;18.604;2023-04-25T05:37:04;10.13;72.81
54540;SHT30;40438;52.992;18.604;2023-04-25T05:39:32;10.10;72.40
54540;SHT30;40438;52.992;18.604;2023-04-25T05:42:16;10.17;72.79
54540;SHT30;40438;52.992;18.604;2023-04-25T05:45:17;10.17;72.04
54540;SHT30;40438;52.992;18.604;2023-04-25T05:48:04;10.24;72.19
54540;SHT30;40438;52.992;18.604;2023-04-25T05:50:53;10.30;71.66
54540;SHT30;40438;52.992;18.604;2023-04-25T05:53:35;10.38;71.28
54540;SHT30;40438;52.992;18.604;2023-04-25T05:56:02;10.47;70.95
54540;SHT30;40438;52.992;18.604;2023-04-25T05:58:28;10.49;70.71
54540;SHT30;40438;52.992;18.604;2023-04-25T06:00:55;10.51;70.70
54540;SHT30;40438;52.992;18.604;2023-04-25T06:03:23;10.57;70.33
54540;SHT30;40438;52.992;18.604;2023-04-25T06:05:50;10.62;69.52
54540;SHT30;40438;52.992;18.604;2023-04-25T06:08:16;10.62;69.49
54540;SHT30;40438;52.992;18.604;2023-04-25T06:10:42;10.65;69.73
54540;SHT30;40438;52.992;18.604;2023-04-25T06:13:08;10.74;69.17
54540;SHT30;40438;52.992;18.604;2023-04-25T06:15:35;10.76;69.22
54540;SHT30;40438;52.992;18.604;2023-04-25T06:18:01;10.79;69.56
54540;SHT30;40438;52.992;18.604;2023-04-25T06:20:29;10.88;69.25
54540;SHT30;40438;52.992;18.604;2023-04-25T06:22:57;10.95;68.70
54540;SHT30;40438;52.992;18.604;2023-04-25T06:25:39;11.00;68.35
54540;SHT30;40438;52.992;18.604;2023-04-25T06:28:05;10.96;67.85
54540;SHT30;40438;52.992;18.604;2023-04-25T06:30:31;10.99;68.00
54540;SHT30;40438;52.992;18.604;2023-04-25T06:33:03;10.95;67.66
54540;SHT30;40438;52.992;18.604;2023-04-25T06:35:30;11.03;67.71
54540;SHT30;40438;52.992;18.604;2023-04-25T06:37:56;11.02;67.90
54540;SHT30;40438;52.992;18.604;2023-04-25T06:40:24;11.00;68.42
54540;SHT30;40438;52.992;18.604;2023-04-25T06:42:49;11.05;68.01
54540;SHT30;40438;52.992;18.604;2023-04-25T06:45:31;11.02;67.54
54540;SHT30;40438;52.992;18.604;2023-04-25T06:47:58;11.05;68.35
54540;SHT30;40438;52.992;18.604;2023-04-25T06:50:24;11.10;68.11
54540;SHT30;40438;52.992;18.604;2023-04-25T06:52:51;11.14;69.01
54540;SHT30;40438;52.992;18.604;2023-04-25T06:55:19;11.23;67.50
54540;SHT30;40438;52.992;18.604;2023-04-25T06:57:58;11.20;67.36
54540;SHT30;40438;52.992;18.604;2023-04-25T07:00:47;11.20;66.90
54540;SHT30;40438;52.992;18.604;2023-04-25T07:03:13;11.30;66.67
54540;SHT30;40438;52.992;18.604;2023-04-25T07:05:39;11.37;65.87
54540;SHT30;40438;52.992;18.604;2023-04-25T07:08:07;11.51;65.68
54540;SHT30;40438;52.992;18.604;2023-04-25T07:10:33;11.70;65.56
54540;SHT30;40438;52.992;18.604;2023-04-25T07:12:59;11.72;65.84
54540;SHT30;40438;52.992;18.604;2023-04-25T07:15:25;11.93;65.04
54540;SHT30;40438;52.992;18.604;2023-04-25T07:17:51;12.03;62.85
54540;SHT30;40438;52.992;18.604;2023-04-25T07:20:17;12.06;63.25
54540;SHT30;40438;52.992;18.604;2023-04-25T07:22:42;12.18;64.26
54540;SHT30;40438;52.992;18.604;2023-04-25T07:25:10;12.29;63.14
54540;SHT30;40438;52.992;18.604;2023-04-25T07:27:37;12.29;62.22
54540;SHT30;40438;52.992;18.604;2023-04-25T07:30:16;12.30;61.82
54540;SHT30;40438;52.992;18.604;2023-04-25T07:32:41;12.32;62.17
54540;SHT30;40438;52.992;18.604;2023-04-25T07:35:08;12.40;62.51
54540;SHT30;40438;52.992;18.604;2023-04-25T07:37:34;12.52;62.18
54540;SHT30;40438;52.992;18.604;2023-04-25T07:40:16;12.54;61.96
54540;SHT30;40438;52.992;18.604;2023-04-25T07:42:45;12.71;62.11
54540;SHT30;40438;52.992;18.604;2023-04-25T07:45:14;12.71;61.62
54540;SHT30;40438;52.992;18.604;2023-04-25T07:47:40;12.80;62.41
54540;SHT30;40438;52.992;18.604;2023-04-25T07:50:07;12.88;62.01
54540;SHT30;40438;52.992;18.604;2023-04-25T07:52:33;12.95;61.49
54540;SHT30;40438;52.992;18.604;2023-04-25T07:55:07;13.04;61.16
54540;SHT30;40438;52.992;18.604;2023-04-25T07:57:44;13.05;60.30
54540;SHT30;40438;52.992;18.604;2023-04-25T08:00:11;13.08;61.02
54540;SHT30;40438;52.992;18.604;2023-04-25T08:02:44;13.08;60.67
54540;SHT30;40438;52.992;18.604;2023-04-25T08:05:14;13.10;59.57
54540;SHT30;40438;52.992;18.604;2023-04-25T08:07:42;13.11;60.24
54540;SHT30;40438;52.992;18.604;2023-04-25T08:10:09;13.18;60.62
54540;SHT30;40438;52.992;18.604;2023-04-25T08:12:35;13.31;60.65
54540;SHT30;40438;52.992;18.604;2023-04-25T08:15:03;13.43;59.42
54540;SHT30;40438;52.992;18.604;2023-04-25T08:17:33;13.50;59.01
54540;SHT30;40438;52.992;18.604;2023-04-25T08:19:59;13.54;59.11
54540;SHT30;40438;52.992;18.604;2023-04-25T08:22:30;13.57;58.25
54540;SHT30;40438;52.992;18.604;2023-04-25T08:25:16;13.54;58.61
54540;SHT30;40438;52.992;18.604;2023-04-25T08:27:43;13.44;58.88
54540;SHT30;40438;52.992;18.604;2023-04-25T08:30:12;13.39;58.00
54540;SHT30;40438;52.992;18.604;2023-04-25T08:32:39;13.32;58.78
54540;SHT30;40438;52.992;18.604;2023-04-25T08:35:24;13.23;59.12
54540;SHT30;40438;52.992;18.604;2023-04-25T08:37:50;13.16;58.87
54540;SHT30;40438;52.992;18.604;2023-04-25T08:40:16;13.14;58.88
54540;SHT30;40438;52.992;18.604;2023-04-25T08:42:54;13.16;59.20
54540;SHT30;40438;52.992;18.604;2023-04-25T08:45:22;13.16;59.28
54540;SHT30;40438;52.992;18.604;2023-04-25T08:47:51;13.22;59.68
54540;SHT30;40438;52.992;18.604;2023-04-25T08:50:18;13.42;59.66
54540;SHT30;40438;52.992;18.604;2023-04-25T08:52:45;13.54;58.65
54540;SHT30;40438;52.992;18.604;2023-04-25T08:55:12;13.50;57.39
54540;SHT30;40438;52.992;18.604;2023-04-25T08:57:39;13.50;56.89
54540;SHT30;40438;52.992;18.604;2023-04-25T09:00:09;13.38;56.20
54540;SHT30;40438;52.992;18.604;2023-04-25T09:02:39;13.23;56.28
54540;SHT30;40438;52.992;18.604;2023-04-25T09:05:07;13.00;57.26
54540;SHT30;40438;52.992;18.604;2023-04-25T09:07:34;12.91;57.21
54540;SHT30;40438;52.992;18.604;2023-04-25T09:10:00;12.87;58.22
54540;SHT30;40438;52.992;18.604;2023-04-25T09:12:27;12.88;59.00
54540;SHT30;40438;52.992;18.604;2023-04-25T09:15:06;12.87;59.17
54540;SHT30;40438;52.992;18.604;2023-04-25T09:17:57;12.88;57.71
54540;SHT30;40438;52.992;18.604;2023-04-25T09:20:24;12.74;57.61
54540;SHT30;40438;52.992;18.604;2023-04-25T09:23:01;12.67;57.16
54540;SHT30;40438;52.992;18.604;2023-04-25T09:25:34;12.53;57.57
54540;SHT30;40438;52.992;18.604;2023-04-25T09:28:03;12.59;58.39
54540;SHT30;40438;52.992;18.604;2023-04-25T09:30:32;12.59;58.71
54540;SHT30;40438;52.992;18.604;2023-04-25T09:33:27;12.64;59.14
54540;SHT30;40438;52.992;18.604;2023-04-25T09:35:53;12.65;58.91
54540;SHT30;40438;52.992;18.604;2023-04-25T09:38:30;12.74;58.82
54540;SHT30;40438;52.992;18.604;2023-04-25T09:41:22;12.78;59.28
54540;SHT30;40438;52.992;18.604;2023-04-25T09:43:49;12.90;58.64
54540;SHT30;40438;52.992;18.604;2023-04-25T09:46:15;12.97;57.80
54540;SHT30;40438;52.992;18.604;2023-04-25T09:48:49;13.01;57.90
54540;SHT30;40438;52.992;18.604;2023-04-25T09:51:17;13.07;57.41
54540;SHT30;40438;52.992;18.604;2023-04-25T09:53:46;13.11;57.13
54540;SHT30;40438;52.992;18.604;2023-04-25T09:56:19;13.11;57.18
54540;SHT30;40438;52.992;18.604;2023-04-25T09:58:49;13.12;57.08
54540;SHT30;40438;52.992;18.604;2023-04-25T10:01:16;13.07;57.31
54540;SHT30;40438;52.992;18.604;2023-04-25T10:04:05;12.94;57.35
54540;SHT30;40438;52.992;18.604;2023-04-25T10:06:57;12.87;58.06
54540;SHT30;40438;52.992;18.604;2023-04-25T10:09:26;12.87;57.95
54540;SHT30;40438;52.992;18.604;2023-04-25T10:11:52;12.78;57.76
54540;SHT30;40438;52.992;18.604;2023-04-25T10:14:18;12.80;58.12
54540;SHT30;40438;52.992;18.604;2023-04-25T10:16:45;12.75;58.36
54540;SHT30;40438;52.992;18.604;2023-04-25T10:19:12;12.71;58.72
54540;SHT30;40438;52.992;18.604;2023-04-25T10:21:43;12.56;59.18
54540;SHT30;40438;52.992;18.604;2023-04-25T10:24:10;12.57;59.24
54540;SHT30;40438;52.992;18.604;2023-04-25T10:26:36;12.40;59.23
54540;SHT30;40438;52.992;18.604;2023-04-25T10:29:03;12.39;59.80
54540;SHT30;40438;52.992;18.604;2023-04-25T10:31:29;12.32;60.27
54540;SHT30;40438;52.992;18.604;2023-04-25T10:33:55;12.29;58.49
54540;SHT30;40438;52.992;18.604;2023-04-25T10:36:23;12.30;58.61
54540;SHT30;40438;52.992;18.604;2023-04-25T10:38:50;12.28;58.94
54540;SHT30;40438;52.992;18.604;2023-04-25T10:41:18;12.28;59.47
54540;SHT30;40438;52.992;18.604;2023-04-25T10:43:44;12.25;60.45
54540;SHT30;40438;52.992;18.604;2023-04-25T10:46:15;12.23;60.94
54540;SHT30;40438;52.992;18.604;2023-04-25T10:48:46;12.34;61.47
54540;SHT30;40438;52.992;18.604;2023-04-25T10:51:16;12.30;61.74
54540;SHT30;40438;52.992;18.604;2023-04-25T10:53:45;12.37;61.62
54540;SHT30;40438;52.992;18.604;2023-04-25T10:56:11;12.39;61.68
54540;SHT30;40438;52.992;18.604;2023-04-25T10:58:42;12.46;61.00
54540;SHT30;40438;52.992;18.604;2023-04-25T11:01:08;12.46;59.77
54540;SHT30;40438;52.992;18.604;2023-04-25T11:03:38;12.34;58.55
54540;SHT30;40438;52.992;18.604;2023-04-25T11:06:06;12.36;58.52
54540;SHT30;40438;52.992;18.604;2023-04-25T11:08:50;12.42;58.96
54540;SHT30;40438;52.992;18.604;2023-04-25T11:11:18;12.53;57.45
54540;SHT30;40438;52.992;18.604;2023-04-25T11:13:44;12.44;57.92
54540;SHT30;40438;52.992;18.604;2023-04-25T11:16:12;12.49;58.71
54540;SHT30;40438;52.992;18.604;2023-04-25T11:18:40;12.65;58.36
54540;SHT30;40438;52.992;18.604;2023-04-25T11:21:06;12.74;57.35
54540;SHT30;40438;52.992;18.604;2023-04-25T11:23:32;12.85;57.43
54540;SHT30;40438;52.992;18.604;2023-04-25T11:25:59;12.92;55.70
54540;SHT30;40438;52.992;18.604;2023-04-25T11:28:26;12.81;54.67
54540;SHT30;40438;52.992;18.604;2023-04-25T11:30:52;12.81;55.02
54540;SHT30;40438;52.992;18.604;2023-04-25T11:33:18;12.82;55.24
54540;SHT30;40438;52.992;18.604;2023-04-25T11:35:48;12.87;54.52
54540;SHT30;40438;52.992;18.604;2023-04-25T11:38:14;12.87;52.92
54540;SHT30;40438;52.992;18.604;2023-04-25T11:40:40;12.87;53.65
54540;SHT30;40438;52.992;18.604;2023-04-25T11:43:09;12.92;54.39
54540;SHT30;40438;52.992;18.604;2023-04-25T11:45:36;13.00;54.24
54540;SHT30;40438;52.992;18.604;2023-04-25T11:48:02;13.10;54.39
54540;SHT30;40438;52.992;18.604;2023-04-25T11:50:28;13.23;53.81
54540;SHT30;40438;52.992;18.604;2023-04-25T11:52:56;13.26;53.75
54540;SHT30;40438;52.992;18.604;2023-04-25T11:55:22;13.33;54.08
54540;SHT30;40438;52.992;18.604;2023-04-25T11:57:49;13.39;53.76
54540;SHT30;40438;52.992;18.604;2023-04-25T12:00:18;13.42;54.49
54540;SHT30;40438;52.992;18.604;2023-04-25T12:02:45;13.47;54.32
54540;SHT30;40438;52.992;18.604;2023-04-25T12:05:12;13.42;54.20
54540;SHT30;40438;52.992;18.604;2023-04-25T12:07:38;13.32;54.24
54540;SHT30;40438;52.992;18.604;2023-04-25T12:10:05;13.18;53.60
54540;SHT30;40438;52.992;18.604;2023-04-25T12:12:32;13.16;53.55
54540;SHT30;40438;52.992;18.604;2023-04-25T12:15:08;13.12;53.31
54540;SHT30;40438;52.992;18.604;2023-04-25T12:17:35;13.07;53.81
54540;SHT30;40438;52.992;18.604;2023-04-25T12:20:06;13.07;54.27
54540;SHT30;40438;52.992;18.604;2023-04-25T12:22:32;12.98;54.59
54540;SHT30;40438;52.992;18.604;2023-04-25T12:24:59;12.92;55.03
54540;SHT30;40438;52.992;18.604;2023-04-25T12:27:25;12.94;54.93
54540;SHT30;40438;52.992;18.604;2023-04-25T12:29:52;12.92;55.24
54540;SHT30;40438;52.992;18.604;2023-04-25T12:32:18;12.91;55.46
54540;SHT30;40438;52.992;18.604;2023-04-25T12:34:46;12.85;55.95
54540;SHT30;40438;52.992;18.604;2023-04-25T12:37:11;12.91;56.23
54540;SHT30;40438;52.992;18.604;2023-04-25T12:39:37;12.85;55.75
54540;SHT30;40438;52.992;18.604;2023-04-25T12:42:03;12.88;55.53
54540;SHT30;40438;52.992;18.604;2023-04-25T12:44:29;12.87;55.84
54540;SHT30;40438;52.992;18.604;2023-04-25T12:46:55;12.91;55.96
54540;SHT30;40438;52.992;18.604;2023-04-25T12:49:20;12.81;56.69
54540;SHT30;40438;52.992;18.604;2023-04-25T12:51:48;12.82;56.86
54540;SHT30;40438;52.992;18.604;2023-04-25T12:54:13;12.71;57.11
54540;SHT30;40438;52.992;18.604;2023-04-25T12:56:40;12.81;57.15
54540;SHT30;40438;52.992;18.604;2023-04-25T12:59:06;12.91;56.85
54540;SHT30;40438;52.992;18.604;2023-04-25T13:01:32;12.98;54.84
54540;SHT30;40438;52.992;18.604;2023-04-25T13:03:58;13.11;54.60
54540;SHT30;40438;52.992;18.604;2023-04-25T13:06:24;13.31;54.40
54540;SHT30;40438;52.992;18.604;2023-04-25T13:08:51;13.42;54.51
54540;SHT30;40438;52.992;18.604;2023-04-25T13:11:17;13.44;54.55
54540;SHT30;40438;52.992;18.604;2023-04-25T13:13:43;13.54;54.96
54540;SHT30;40438;52.992;18.604;2023-04-25T13:16:09;13.60;54.98
54540;SHT30;40438;52.992;18.604;2023-04-25T13:18:35;13.70;55.26
54540;SHT30;40438;52.992;18.604;2023-04-25T13:21:01;13.74;55.57
54540;SHT30;40438;52.992;18.604;2023-04-25T13:23:28;13.64;55.30
54540;SHT30;40438;52.992;18.604;2023-04-25T13:25:55;13.64;55.64
54540;SHT30;40438;52.992;18.604;2023-04-25T13:28:21;13.59;53.86
54540;SHT30;40438;52.992;18.604;2023-04-25T13:30:47;13.39;53.37
54540;SHT30;40438;52.992;18.604;2023-04-25T13:33:13;13.38;53.85
54540;SHT30;40438;52.992;18.604;2023-04-25T13:35:39;13.26;54.18
54540;SHT30;40438;52.992;18.604;2023-04-25T13:38:05;13.19;54.60
54540;SHT30;40438;52.992;18.604;2023-04-25T13:40:31;13.15;55.66
54540;SHT30;40438;52.992;18.604;2023-04-25T13:42:58;13.11;55.88
54540;SHT30;40438;52.992;18.604;2023-04-25T13:45:24;13.07;56.50
54540;SHT30;40438;52.992;18.604;2023-04-25T13:47:50;13.11;56.42
54540;SHT30;40438;52.992;18.604;2023-04-25T13:50:16;13.11;55.90
54540;SHT30;40438;52.992;18.604;2023-04-25T13:52:42;13.07;55.89
54540;SHT30;40438;52.992;18.604;2023-04-25T13:55:08;13.05;56.23
54540;SHT30;40438;52.992;18.604;2023-04-25T13:57:34;13.05;56.58
54540;SHT30;40438;52.992;18.604;2023-04-25T14:00:03;13.08;56.90
54540;SHT30;40438;52.992;18.604;2023-04-25T14:02:32;13.15;56.73
54540;SHT30;40438;52.992;18.604;2023-04-25T14:04:58;13.25;56.87
54540;SHT30;40438;52.992;18.604;2023-04-25T14:07:24;13.28;56.58
54540;SHT30;40438;52.992;18.604;2023-04-25T14:09:50;13.35;56.24
54540;SHT30;40438;52.992;18.604;2023-04-25T14:12:16;13.43;56.30
54540;SHT30;40438;52.992;18.604;2023-04-25T14:14:42;13.52;56.43
54540;SHT30;40438;52.992;18.604;2023-04-25T14:17:09;13.66;55.92
54540;SHT30;40438;52.992;18.604;2023-04-25T14:19:35;13.83;55.73
54540;SHT30;40438;52.992;18.604;2023-04-25T14:22:01;13.90;55.74
54540;SHT30;40438;52.992;18.604;2023-04-25T14:24:27;14.04;55.70
54540;SHT30;40438;52.992;18.604;2023-04-25T14:26:53;14.07;54.25
54540;SHT30;40438;52.992;18.604;2023-04-25T14:29:18;14.01;54.11
54540;SHT30;40438;52.992;18.604;2023-04-25T14:31:44;14.02;54.82
54540;SHT30;40438;52.992;18.604;2023-04-25T14:34:11;14.01;54.26
54540;SHT30;40438;52.992;18.604;2023-04-25T14:36:37;13.93;54.64
54540;SHT30;40438;52.992;18.604;2023-04-25T14:39:04;13.80;54.58
54540;SHT30;40438;52.992;18.604;2023-04-25T14:41:29;13.76;54.70
54540;SHT30;40438;52.992;18.604;2023-04-25T14:43:55;13.74;54.71
54540;SHT30;40438;52.992;18.604;2023-04-25T14:46:21;13.61;55.38
54540;SHT30;40438;52.992;18.604;2023-04-25T14:48:47;13.59;56.01
54540;SHT30;40438;52.992;18.604;2023-04-25T14:51:14;13.54;55.87
54540;SHT30;40438;52.992;18.604;2023-04-25T14:53:40;13.57;55.78
54540;SHT30;40438;52.992;18.604;2023-04-25T14:56:06;13.59;55.40
54540;SHT30;40438;52.992;18.604;2023-04-25T14:58:32;13.54;55.40
54540;SHT30;40438;52.992;18.604;2023-04-25T15:00:58;13.50;55.43
54540;SHT30;40438;52.992;18.604;2023-04-25T15:03:24;13.47;55.43
54540;SHT30;40438;52.992;18.604;2023-04-25T15:05:50;13.42;55.65
54540;SHT30;40438;52.992;18.604;2023-04-25T15:08:17;13.39;55.81
54540;SHT30;40438;52.992;18.604;2023-04-25T15:10:43;13.38;55.06
54540;SHT30;40438;52.992;18.604;2023-04-25T15:13:09;13.39;54.39
54540;SHT30;40438;52.992;18.604;2023-04-25T15:15:35;13.35;54.90
54540;SHT30;40438;52.992;18.604;2023-04-25T15:18:01;13.32;55.09
54540;SHT30;40438;52.992;18.604;2023-04-25T15:20:26;13.29;54.88
54540;SHT30;40438;52.992;18.604;2023-04-25T15:22:52;13.23;55.56
54540;SHT30;40438;52.992;18.604;2023-04-25T15:25:19;13.22;55.56
54540;SHT30;40438;52.992;18.604;2023-04-25T15:27:46;13.18;55.85